Time;durP1;ratioP1;P1;durP2;ratioP2;P2;SDS_P1;SDS_P2;PMS_P1;PMS_P2;Temp;Humidity;BMP_temperature;BMP_pressure;BME280_temperature;BME280_humidity;BME280_pressure;Samples;Min_cycle;Max_cycle;Signal;HPM_P1;HPM_P2
2023/04/29 00:02:23;;;;;;;1999.90;999.90;;;;;;;10.92;100.00;97782.41;5052225;28;20040;-75
2023/04/29 00:04:48;;;;;;;1999.90;999.90;;;;;;;11.01;100.00;97784.13;5052075;28;20386;-75
2023/04/29 00:07:14;;;;;;;1999.90;999.90;;;;;;;11.01;100.00;97767.72;5034661;28;20036;-75
2023/04/29 00:09:40;;;;;;;1999.90;999.90;;;;;;;11.03;100.00;97767.41;5052410;28;20078;-75
2023/04/29 00:12:06;;;;;;;1999.90;999.90;;;;;;;10.93;100.00;97753.94;5052650;28;20424;-75
2023/04/29 00:14:31;;;;;;;1999.90;999.90;;;;;;;10.91;100.00;97762.41;5034711;28;20025;-76
2023/04/29 00:16:57;;;;;;;1999.90;999.90;;;;;;;10.98;100.00;97748.34;5053650;28;20088;-76
2023/04/29 00:19:22;;;;;;;1999.90;999.90;;;;;;;10.99;100.00;97741.78;5056803;28;20052;-75
2023/04/29 00:21:48;;;;;;;1999.90;999.90;;;;;;;10.97;100.00;97733.03;5054018;28;20032;-75
2023/04/29 00:24:13;;;;;;;1999.90;999.90;;;;;;;11.06;100.00;97739.41;5034244;28;20089;-74
2023/04/29 00:26:40;;;;;;;1999.90;999.90;;;;;;;10.93;100.00;97726.56;5043875;28;20040;-75
2023/04/29 00:29:05;;;;;;;1999.90;999.90;;;;;;;10.99;100.00;97719.88;5014222;28;20037;-75
2023/04/29 00:31:31;;;;;;;1999.90;999.90;;;;;;;10.95;100.00;97710.63;5032365;28;20030;-75
2023/04/29 00:33:57;;;;;;;1999.90;999.90;;;;;;;11.02;100.00;97713.78;5032127;28;20044;-75
2023/04/29 00:36:22;;;;;;;1999.90;999.90;;;;;;;10.92;100.00;97703.84;5031957;28;20041;-75
2023/04/29 00:38:47;;;;;;;1999.90;999.90;;;;;;;10.84;100.00;97704.53;5032019;28;20109;-75
2023/04/29 00:41:13;;;;;;;1999.90;999.90;;;;;;;10.76;100.00;97699.78;5032169;28;20501;-75
2023/04/29 00:43:38;;;;;;;1999.90;999.90;;;;;;;10.62;100.00;97693.47;5014347;28;20478;-74
2023/04/29 00:46:03;;;;;;;1999.90;999.90;;;;;;;10.60;100.00;97702.00;5031995;28;20041;-77
2023/04/29 00:48:29;;;;;;;1999.90;999.90;;;;;;;10.62;100.00;97702.50;5032717;28;20065;-75
2023/04/29 00:50:55;;;;;;;1999.90;999.90;;;;;;;10.61;100.00;97695.41;5032283;28;20026;-76
2023/04/29 00:53:22;;;;;;;1999.90;999.90;;;;;;;10.71;100.00;97697.16;5033105;28;20026;-75
2023/04/29 00:55:50;;;;;;;1999.90;999.90;;;;;;;10.69;100.00;97693.91;5032840;28;20021;-75
2023/04/29 00:58:16;;;;;;;1999.90;999.90;;;;;;;10.73;100.00;97692.19;5032961;28;20026;-75
2023/04/29 01:00:42;;;;;;;1999.90;999.90;;;;;;;10.81;100.00;97690.69;5014907;28;20402;-75
2023/04/29 01:03:09;;;;;;;1999.90;999.90;;;;;;;10.77;100.00;97695.13;5031601;28;20029;-76
2023/04/29 01:05:35;;;;;;;1999.90;999.90;;;;;;;10.77;100.00;97683.06;5031476;28;20490;-76
2023/04/29 01:08:06;;;;;;;1999.90;999.90;;;;;;;10.77;100.00;97691.25;5013601;28;20060;-74
2023/04/29 01:10:43;;;;;;;1999.90;999.90;;;;;;;10.67;100.00;97688.75;5031419;28;20517;-75
2023/04/29 01:13:16;;;;;;;1999.90;999.90;;;;;;;10.61;100.00;97689.13;5030817;28;20091;-75
2023/04/29 01:15:48;;;;;;;1999.90;999.90;;;;;;;10.62;100.00;97694.28;5010361;28;20123;-76
2023/04/29 01:18:26;;;;;;;1999.90;999.90;;;;;;;10.48;100.00;97690.75;5002520;28;20033;-75
2023/04/29 01:20:51;;;;;;;1999.90;999.90;;;;;;;10.46;100.00;97695.69;5028912;28;20076;-75
2023/04/29 01:23:17;;;;;;;1999.90;999.90;;;;;;;10.50;100.00;97696.69;5031097;28;20475;-75
2023/04/29 01:25:42;;;;;;;1999.90;999.90;;;;;;;10.39;100.00;97699.94;5010037;28;20034;-75
2023/04/29 01:28:38;;;;;;;1999.90;999.90;;;;;;;10.44;100.00;97706.13;5030826;28;20041;-74
2023/04/29 01:31:27;;;;;;;1999.90;999.90;;;;;;;10.48;100.00;97704.41;5013184;28;20041;-74
2023/04/29 01:34:09;;;;;;;1999.90;999.90;;;;;;;10.36;100.00;97706.81;5030810;28;20030;-75
2023/04/29 01:36:46;;;;;;;1999.90;999.90;;;;;;;10.24;100.00;97692.00;5030605;28;20069;-75
2023/04/29 01:39:33;;;;;;;1999.90;999.90;;;;;;;10.29;100.00;97695.44;5013100;28;20121;-75
2023/04/29 01:42:13;;;;;;;1999.90;999.90;;;;;;;10.28;100.00;97699.28;5030859;28;20030;-75
2023/04/29 01:44:41;;;;;;;1999.90;999.90;;;;;;;10.33;100.00;97707.41;5031187;28;20112;-76
2023/04/29 01:47:12;;;;;;;1999.90;999.90;;;;;;;10.19;100.00;97701.91;5030339;28;20116;-75
2023/04/29 01:49:38;;;;;;;1999.90;999.90;;;;;;;10.25;100.00;97708.09;5030639;28;20032;-75
2023/04/29 01:52:04;;;;;;;1999.90;999.90;;;;;;;10.27;100.00;97708.63;5030347;28;20032;-75
2023/04/29 01:54:29;;;;;;;1999.90;999.90;;;;;;;10.20;100.00;97702.72;5012884;28;20022;-75
2023/04/29 01:56:54;;;;;;;1999.90;999.90;;;;;;;10.10;100.00;97686.44;5012925;28;20044;-75
2023/04/29 01:59:20;;;;;;;1999.90;999.90;;;;;;;9.97;100.00;97685.28;5032760;28;20064;-75
2023/04/29 02:01:45;;;;;;;1999.90;999.90;;;;;;;10.00;100.00;97681.13;5051718;28;20063;-74
2023/04/29 02:04:10;;;;;;;1999.90;999.90;;;;;;;9.88;100.00;97675.34;5035597;28;20029;-75
2023/04/29 02:06:36;;;;;;;1999.90;999.90;;;;;;;9.89;100.00;97675.06;5037927;28;20037;-74
2023/04/29 02:09:01;;;;;;;1999.90;999.90;;;;;;;9.96;100.00;97669.22;5049866;28;20079;-74
2023/04/29 02:11:26;;;;;;;1999.90;999.90;;;;;;;10.05;100.00;97672.88;5050998;28;20057;-73
2023/04/29 02:13:53;;;;;;;1999.90;999.90;;;;;;;9.96;100.00;97664.53;5029648;28;20386;-75
2023/04/29 02:16:18;;;;;;;1999.90;999.90;;;;;;;9.93;100.00;97662.41;5030442;28;20033;-74
2023/04/29 02:18:44;;;;;;;1999.90;999.90;;;;;;;9.93;100.00;97664.34;5030643;28;20025;-75
2023/04/29 02:21:09;;;;;;;1999.90;999.90;;;;;;;9.93;100.00;97653.41;5028937;28;20079;-75
2023/04/29 02:23:35;;;;;;;1999.90;999.90;;;;;;;9.89;100.00;97652.38;5031680;28;20083;-74
2023/04/29 02:26:00;;;;;;;1999.90;999.90;;;;;;;9.99;100.00;97663.16;5033981;28;20030;-75
2023/04/29 02:28:26;;;;;;;1999.90;999.90;;;;;;;9.93;100.00;97647.94;5034452;28;20033;-76
2023/04/29 02:30:52;;;;;;;1999.90;999.90;;;;;;;9.95;100.00;97652.00;5032978;28;20026;-74
2023/04/29 02:33:17;;;;;;;1999.90;999.90;;;;;;;9.93;100.00;97639.75;5034257;28;20095;-76
2023/04/29 02:35:43;;;;;;;1999.90;999.90;;;;;;;9.75;100.00;97648.78;5034181;28;20068;-75
2023/04/29 02:38:09;;;;;;;1999.90;999.90;;;;;;;9.74;100.00;97638.97;5033970;28;20137;-74
2023/04/29 02:40:34;;;;;;;1999.90;999.90;;;;;;;9.65;100.00;97642.38;5034000;28;20021;-73
2023/04/29 02:43:00;;;;;;;1999.90;999.90;;;;;;;9.61;100.00;97641.34;5032746;28;20032;-75
2023/04/29 02:45:25;;;;;;;1999.90;999.90;;;;;;;9.65;100.00;97642.38;5033379;28;20060;-75
2023/04/29 02:47:51;;;;;;;1999.90;999.90;;;;;;;9.52;100.00;97634.13;5052738;28;20485;-76
2023/04/29 02:50:16;;;;;;;1999.90;999.90;;;;;;;9.39;100.00;97643.06;5037742;28;20029;-76
2023/04/29 02:52:41;;;;;;;1999.90;999.90;;;;;;;9.20;100.00;97655.88;5055365;28;20043;-76
2023/04/29 02:55:08;;;;;;;1999.90;999.90;;;;;;;9.15;100.00;97635.72;5039166;28;20109;-76
2023/04/29 02:57:33;;;;;;;1999.90;999.90;;;;;;;9.18;100.00;97642.50;5050942;28;20537;-76
2023/04/29 02:59:59;;;;;;;1999.90;999.90;;;;;;;9.26;100.00;97635.59;5049235;28;20079;-76
2023/04/29 03:02:25;;;;;;;1999.90;999.90;;;;;;;9.21;100.00;97628.28;5033247;28;20036;-75
2023/04/29 03:04:51;;;;;;;1999.90;999.90;;;;;;;9.18;100.00;97622.63;5032182;28;20104;-75
2023/04/29 03:07:16;;;;;;;1999.90;999.90;;;;;;;9.14;100.00;97620.47;5032993;28;20060;-76
2023/04/29 03:09:42;;;;;;;1999.90;999.90;;;;;;;9.15;100.00;97621.28;5032863;28;20065;-76
2023/04/29 03:12:07;;;;;;;1999.90;999.90;;;;;;;9.25;100.00;97625.78;5036630;28;20428;-75
2023/04/29 03:14:33;;;;;;;1999.90;999.90;;;;;;;9.32;100.00;97618.84;5053671;28;20065;-74
2023/04/29 03:16:58;;;;;;;1999.90;999.90;;;;;;;9.20;100.00;97613.03;5052907;28;20029;-76
2023/04/29 03:19:23;;;;;;;1999.90;999.90;;;;;;;9.19;100.00;97610.59;5035039;28;20516;-75
2023/04/29 03:21:49;;;;;;;1999.90;999.90;;;;;;;9.17;100.00;97613.63;5052789;28;20028;-76
2023/04/29 03:24:14;;;;;;;1999.90;999.90;;;;;;;9.17;100.00;97619.09;5052700;28;20032;-76
2023/04/29 03:26:41;;;;;;;1999.90;999.90;;;;;;;9.16;100.00;97617.44;5052693;28;20029;-75
2023/04/29 03:29:07;;;;;;;1999.90;999.90;;;;;;;9.18;100.00;97614.44;5052746;28;20087;-77
2023/04/29 03:31:32;;;;;;;1999.90;999.90;;;;;;;9.16;100.00;97606.53;5053081;28;20486;-77
2023/04/29 03:33:58;;;;;;;1999.90;999.90;;;;;;;9.13;100.00;97601.66;5035055;28;20550;-76
2023/04/29 03:36:23;;;;;;;1999.90;999.90;;;;;;;9.07;100.00;97605.56;5051779;28;20056;-76
2023/04/29 03:38:49;;;;;;;1999.90;999.90;;;;;;;9.13;100.00;97612.56;5052509;28;20112;-77
2023/04/29 03:41:14;;;;;;;1999.90;999.90;;;;;;;9.22;100.00;97618.19;5052824;28;20045;-76
2023/04/29 03:43:40;;;;;;;1999.90;999.90;;;;;;;9.12;100.00;97610.94;5044460;28;20033;-77
2023/04/29 03:46:09;;;;;;;1999.90;999.90;;;;;;;9.13;100.00;97615.31;5032064;28;20021;-76
2023/04/29 03:48:35;;;;;;;1999.90;999.90;;;;;;;9.25;100.00;97620.31;5040801;28;20056;-77
2023/04/29 03:51:01;;;;;;;1999.90;999.90;;;;;;;9.28;100.00;97619.72;5072593;28;20396;-76
2023/04/29 03:53:26;;;;;;;1999.90;999.90;;;;;;;9.28;100.00;97619.72;5072508;28;20108;-75
2023/04/29 03:55:51;;;;;;;1999.90;999.90;;;;;;;9.29;100.00;97621.34;5072130;28;20029;-75
2023/04/29 03:58:17;;;;;;;1999.90;999.90;;;;;;;9.31;100.00;97611.75;5054283;28;20032;-75
2023/04/29 04:00:42;;;;;;;1999.90;999.90;;;;;;;9.27;100.00;97621.63;5074332;28;20048;-76
2023/04/29 04:03:07;;;;;;;1999.90;999.90;;;;;;;9.24;100.00;97624.97;5074010;28;20086;-77
2023/04/29 04:05:33;;;;;;;1999.90;999.90;;;;;;;9.33;100.00;97625.13;5072093;28;20099;-72
2023/04/29 04:07:59;;;;;;;1999.90;999.90;;;;;;;9.31;100.00;97628.13;5072303;28;20396;-73
2023/04/29 04:10:25;;;;;;;1999.90;999.90;;;;;;;9.30;100.00;97612.06;5084721;28;20115;-73
2023/04/29 04:12:50;;;;;;;1999.90;999.90;;;;;;;9.37;100.00;97640.59;5073916;28;20067;-73
2023/04/29 04:15:15;;;;;;;1999.90;999.90;;;;;;;9.39;100.00;97627.50;5072390;28;20029;-73
2023/04/29 04:17:41;;;;;;;1999.90;999.90;;;;;;;9.34;100.00;97627.56;5071695;28;20481;-72
2023/04/29 04:20:07;;;;;;;1999.90;999.90;;;;;;;9.37;100.00;97640.59;5071824;28;20101;-72
2023/04/29 04:22:32;;;;;;;1999.90;999.90;;;;;;;9.44;100.00;97637.50;5071758;28;20040;-72
2023/04/29 04:24:57;;;;;;;1999.90;999.90;;;;;;;9.56;100.00;97644.16;5071958;28;20032;-72
2023/04/29 04:27:23;;;;;;;1999.90;999.90;;;;;;;9.64;100.00;97643.50;5053834;28;20029;-71
2023/04/29 04:29:52;;;;;;;1999.90;999.90;;;;;;;9.63;100.00;97644.59;5071624;28;20489;-72
2023/04/29 04:32:18;;;;;;;1999.90;999.90;;;;;;;9.57;100.00;97640.31;5069243;28;20036;-72
2023/04/29 04:34:43;;;;;;;1999.90;999.90;;;;;;;9.71;100.00;97639.56;5051618;28;20078;-72
2023/04/29 04:37:08;;;;;;;1999.90;999.90;;;;;;;9.75;100.00;97644.13;5051126;28;20053;-72
2023/04/29 04:39:34;;;;;;;1999.90;999.90;;;;;;;9.88;100.00;97650.75;5033768;28;20378;-73
2023/04/29 04:41:59;;;;;;;1999.90;999.90;;;;;;;9.82;100.00;97649.22;5051632;28;20396;-73
2023/04/29 04:44:24;;;;;;;1999.90;999.90;;;;;;;9.77;100.00;97643.84;5051631;28;20497;-72
2023/04/29 04:46:51;;;;;;;1999.90;999.90;;;;;;;9.91;100.00;97655.63;5051725;28;20037;-73
2023/04/29 04:49:16;;;;;;;1999.90;999.90;;;;;;;9.91;100.00;97650.97;5059077;28;20441;-73
2023/04/29 04:51:44;;;;;;;1999.90;999.90;;;;;;;9.84;100.00;97655.19;5055306;28;20139;-72
2023/04/29 04:54:11;;;;;;;1999.90;999.90;;;;;;;9.90;100.00;97656.75;5071305;28;20481;-73
2023/04/29 04:56:36;;;;;;;1999.90;999.90;;;;;;;9.96;100.00;97658.28;5071529;28;20504;-73
2023/04/29 04:59:02;;;;;;;1999.90;999.90;;;;;;;10.01;100.00;97658.19;5071277;28;20138;-73
2023/04/29 05:01:27;;;;;;;1999.90;999.90;;;;;;;9.96;100.00;97650.88;5036755;28;20061;-73
2023/04/29 05:03:53;;;;;;;1999.90;999.90;;;;;;;10.00;100.00;97653.81;5054116;28;20025;-74
2023/04/29 05:06:18;;;;;;;1999.90;999.90;;;;;;;9.99;100.00;97650.28;5070830;28;20036;-73
2023/04/29 05:08:44;;;;;;;1999.90;999.90;;;;;;;10.07;100.00;97657.00;5031026;28;20036;-72
2023/04/29 05:11:19;;;;;;;1999.90;999.90;;;;;;;10.16;100.00;97666.16;5023083;28;20029;-73
2023/04/29 05:13:44;;;;;;;;;;;;;;;10.28;100.00;97674.69;5014090;28;20029;-73
2023/04/29 05:16:10;;;;;;;;;;;;;;;10.34;100.00;97670.75;5032036;28;19963;-74
2023/04/29 05:18:35;;;;;;;1999.90;999.90;;;;;;;10.44;100.00;97676.03;5034270;28;19913;-73
2023/04/29 05:21:00;;;;;;;1999.90;999.90;;;;;;;10.50;100.00;97666.63;5046197;28;20111;-73
2023/04/29 05:23:26;;;;;;;1999.90;999.90;;;;;;;10.48;100.00;97671.59;5051731;28;20449;-73
2023/04/29 05:25:52;;;;;;;1999.90;999.90;;;;;;;10.55;100.00;97666.56;5050535;28;20036;-73
2023/04/29 05:28:17;;;;;;;1999.90;999.90;;;;;;;10.67;100.00;97680.53;5050571;28;20029;-74
2023/04/29 05:30:43;;;;;;;1999.90;999.90;;;;;;;10.68;100.00;97675.88;5050392;28;20056;-72
2023/04/29 05:33:09;;;;;;;1999.90;999.90;;;;;;;10.70;100.00;97685.41;5050630;28;20064;-73
2023/04/29 05:35:34;;;;;;;1999.90;999.90;;;;;;;10.72;100.00;97682.34;5050240;28;20056;-73
2023/04/29 05:37:59;;;;;;;1999.90;999.90;;;;;;;10.68;100.00;97687.59;5032062;28;20080;-75
2023/04/29 05:40:25;;;;;;;1999.90;999.90;;;;;;;10.74;100.00;97686.41;5050347;28;20021;-73
2023/04/29 05:42:50;;;;;;;1999.90;999.90;;;;;;;10.82;100.00;97684.06;5050473;28;20033;-73
2023/04/29 05:45:16;;;;;;;1999.90;999.90;;;;;;;10.94;100.00;97703.53;5050902;28;20029;-74
2023/04/29 05:47:41;;;;;;;1999.90;999.90;;;;;;;11.02;100.00;97703.66;5033771;28;20025;-74
2023/04/29 05:50:07;;;;;;;1999.90;999.90;;;;;;;11.14;100.00;97700.41;5062189;28;20040;-74
2023/04/29 05:52:32;;;;;;;1999.90;999.90;;;;;;;11.29;100.00;97713.78;5072124;28;20036;-75
2023/04/29 05:54:57;;;;;;;1999.90;999.90;;;;;;;11.47;100.00;97709.28;5071719;28;20499;-73
2023/04/29 05:57:23;;;;;;;1999.90;999.90;;;;;;;11.41;100.00;97711.31;5071017;28;20549;-74
2023/04/29 05:59:48;;;;;;;1999.90;999.90;;;;;;;11.42;100.00;97710.22;5069718;28;20047;-74
2023/04/29 06:02:13;;;;;;;1999.90;999.90;;;;;;;11.62;100.00;97715.22;5060405;28;20501;-74
2023/04/29 06:04:41;;;;;;;1999.90;999.90;;;;;;;11.67;100.00;97715.13;5047335;28;20025;-75
2023/04/29 06:07:08;;;;;;;1999.90;999.90;;;;;;;11.89;100.00;97711.66;5040964;28;20099;-73
2023/04/29 06:09:35;;;;;;;1999.90;999.90;;;;;;;11.91;100.00;97714.06;5046553;28;20029;-73
2023/04/29 06:12:02;;;;;;;1999.90;999.90;;;;;;;11.89;100.00;97722.63;5045088;28;20081;-73
2023/04/29 06:14:27;;;;;;;1999.90;999.90;;;;;;;11.94;100.00;97730.72;5049373;28;20029;-73
2023/04/29 06:16:52;;;;;;;1999.90;999.90;;;;;;;11.85;100.00;97720.78;5056535;28;20025;-75
2023/04/29 06:19:18;;;;;;;1999.90;999.90;;;;;;;11.75;100.00;97719.91;5050488;28;20041;-73
2023/04/29 06:21:43;;;;;;;1999.90;999.90;;;;;;;11.62;100.00;97711.72;5031706;28;20025;-74
2023/04/29 06:24:09;;;;;;;1999.90;999.90;;;;;;;11.91;100.00;97714.06;5030366;28;20092;-73
2023/04/29 06:26:34;;;;;;;1999.90;999.90;;;;;;;12.03;100.00;97714.34;5030009;28;20029;-73
2023/04/29 06:28:59;;;;;;;1999.90;999.90;;;;;;;11.95;100.00;97710.41;5032921;28;20484;-74
2023/04/29 06:31:25;;;;;;;1999.90;999.90;;;;;;;12.03;100.00;97706.13;5048964;28;20027;-75
2023/04/29 06:33:50;;;;;;;1999.90;999.90;;;;;;;12.20;100.00;97700.75;5042878;28;20033;-75
2023/04/29 06:36:16;;;;;;;1999.90;999.90;;;;;;;12.37;100.00;97698.16;5037648;28;20037;-75
2023/04/29 06:38:41;;;;;;;1999.90;999.90;;;;;;;12.24;100.00;97713.56;5009472;28;20041;-75
2023/04/29 06:41:06;;;;;;;1999.90;999.90;;;;;;;12.22;100.00;97715.78;5021564;28;20417;-75
2023/04/29 06:43:31;;;;;;;1999.90;999.90;;;;;;;12.38;99.69;97729.91;5039891;28;20052;-74
2023/04/29 06:45:57;;;;;;;1999.90;999.90;;;;;;;12.58;96.59;97723.94;5040498;28;20071;-86
2023/04/29 06:48:22;;;;;;;1999.90;999.90;;;;;;;12.63;96.53;97732.03;5038093;28;20036;-83
2023/04/29 06:50:52;;;;;;;1999.90;999.90;;;;;;;12.98;94.01;97740.44;5051217;28;20021;-86
2023/04/29 06:53:18;;;;;;;1999.90;999.90;;;;;;;12.99;93.35;97728.34;5052865;28;20105;-87
2023/04/29 06:55:45;;;;;;;1999.90;999.90;;;;;;;13.10;92.00;97735.19;5052482;28;20099;-87
2023/04/29 06:58:17;;;;;;;1999.90;999.90;;;;;;;13.30;87.53;97745.63;5059984;28;20028;-86
2023/04/29 07:00:44;;;;;;;1999.90;999.90;;;;;;;13.53;84.70;97740.84;5019248;28;20030;-81
2023/04/29 07:03:10;;;;;;;1999.90;999.90;;;;;;;13.08;84.71;97737.41;5026765;28;20052;-81
2023/04/29 07:05:38;;;;;;;1999.90;999.90;;;;;;;12.86;86.45;97719.88;5028102;28;20123;-82
2023/04/29 07:08:04;;;;;;;1999.90;999.90;;;;;;;13.31;85.14;97723.31;5031125;28;20029;-81
2023/04/29 07:10:29;;;;;;;1999.90;999.90;;;;;;;13.35;81.77;97738.03;5049651;28;20420;-79
2023/04/29 07:12:55;;;;;;;1999.90;999.90;;;;;;;13.61;80.04;97746.34;5053916;28;20036;-81
2023/04/29 07:15:20;;;;;;;1999.90;999.90;;;;;;;13.55;80.84;97750.38;5042377;28;20025;-86
2023/04/29 07:17:46;;;;;;;1999.90;999.90;;;;;;;13.49;81.24;97754.41;5062446;28;20028;-85
2023/04/29 07:20:11;;;;;;;1999.90;999.90;;;;;;;13.52;83.51;97744.72;5062977;28;20116;-84
2023/04/29 07:22:37;;;;;;;1999.90;999.90;;;;;;;13.39;82.66;97744.53;5063446;28;20100;-86
2023/04/29 07:25:03;;;;;;;1999.90;999.90;;;;;;;13.83;79.69;97746.25;5062551;28;20029;-86
2023/04/29 07:27:28;;;;;;;1999.90;999.90;;;;;;;13.87;79.76;97754.66;5062749;28;20025;-84
2023/04/29 07:29:54;;;;;;;1999.90;999.90;;;;;;;13.89;77.97;97757.88;5062602;28;20071;-86
2023/04/29 07:32:19;;;;;;;1999.90;999.90;;;;;;;14.10;77.15;97750.63;5061533;28;20025;-86
2023/04/29 07:34:45;;;;;;;1999.90;999.90;;;;;;;14.38;75.16;97759.38;5044041;28;20025;-86
2023/04/29 07:37:10;;;;;;;1999.90;999.90;;;;;;;14.26;74.96;97753.69;5039794;28;20037;-86
2023/04/29 07:39:36;;;;;;;1999.90;999.90;;;;;;;14.41;76.01;97756.78;5040939;28;20052;-86
2023/04/29 07:42:01;;;;;;;1999.90;999.90;;;;;;;14.14;79.96;97757.09;5040899;28;20048;-83
2023/04/29 07:44:27;;;;;;;1999.90;999.90;;;;;;;14.16;81.39;97756.78;5041460;28;20021;-85
2023/04/29 07:46:53;;;;;;;1999.90;999.90;;;;;;;14.37;78.87;97768.78;5041071;28;20021;-87
2023/04/29 07:49:18;;;;;;;1999.90;999.90;;;;;;;14.37;79.42;97763.28;5042023;28;20486;-86
2023/04/29 07:51:43;;;;;;;1999.90;999.90;;;;;;;14.60;78.52;97767.47;5041348;28;20029;-87
2023/04/29 07:54:09;;;;;;;1999.90;999.90;;;;;;;14.79;78.59;97773.41;5041601;28;20057;-81
2023/04/29 07:56:34;;;;;;;1999.90;999.90;;;;;;;14.66;77.11;97766.16;5042304;28;20032;-85
2023/04/29 07:59:00;;;;;;;1999.90;999.90;;;;;;;14.65;77.34;97772.00;5042131;28;20101;-84
2023/04/29 08:01:26;;;;;;;1999.90;999.90;;;;;;;14.67;77.51;97773.28;5042284;28;20033;-85
2023/04/29 08:03:51;;;;;;;1999.90;999.90;;;;;;;14.84;80.26;97778.78;5043200;28;20030;-86
2023/04/29 08:06:19;;;;;;;1999.90;999.90;;;;;;;15.00;80.15;97787.31;5043825;28;20083;-86
2023/04/29 08:08:45;;;;;;;1999.90;999.90;;;;;;;15.01;79.26;97773.22;5041754;28;20045;-85
2023/04/29 08:11:17;;;;;;;1999.90;999.90;;;;;;;15.38;77.26;97782.63;5043417;28;20029;-86
2023/04/29 08:13:42;;;;;;;1999.90;999.90;;;;;;;15.77;75.75;97778.75;5042856;28;20033;-85
2023/04/29 08:16:08;;;;;;;1999.90;999.90;;;;;;;16.18;71.99;97777.19;5043606;28;20018;-85
2023/04/29 08:18:33;;;;;;;1999.90;999.90;;;;;;;16.94;68.16;97778.50;5042845;28;20025;-85
2023/04/29 08:20:59;;;;;;;1999.90;999.90;;;;;;;17.51;62.78;97786.00;5043792;28;20026;-83
2023/04/29 08:23:24;;;;;;;1999.90;999.90;;;;;;;17.41;62.53;97780.91;5045075;28;20036;-84
2023/04/29 08:25:51;;;;;;;1999.90;999.90;;;;;;;17.50;61.05;97795.44;5056234;28;20040;-84
2023/04/29 08:28:16;;;;;;;1999.90;999.90;;;;;;;17.52;60.11;97793.13;5048806;28;20056;-85
2023/04/29 08:30:42;;;;;;;1999.90;999.90;;;;;;;18.70;56.56;97788.97;5044326;28;20021;-84
2023/04/29 08:33:11;;;;;;;1999.90;999.90;;;;;;;19.25;53.85;97801.19;5044555;28;20029;-85
2023/04/29 08:35:37;;;;;;;1999.90;999.90;;;;;;;19.92;50.60;97808.50;5043023;28;20402;-86
2023/04/29 08:38:06;;;;;;;1999.90;999.90;;;;;;;21.01;47.66;97812.94;5057932;28;20059;-84
2023/04/29 08:40:49;;;;;;;1999.90;999.90;;;;;;;22.42;43.38;97821.03;5063515;28;20052;-86
2023/04/29 08:43:15;;;;;;;1999.90;999.90;;;;;;;23.18;42.31;97809.66;5063363;28;20086;-85
2023/04/29 08:45:44;;;;;;;1999.90;999.90;;;;;;;22.98;42.17;97797.88;5066077;28;20033;-84
2023/04/29 08:48:09;;;;;;;1999.90;999.90;;;;;;;23.35;41.21;97807.06;5065270;28;20045;-86
2023/04/29 08:50:41;;;;;;;1999.90;999.90;;;;;;;23.01;41.14;97797.09;5066462;28;20095;-81
2023/04/29 08:53:11;;;;;;;1999.90;999.90;;;;;;;23.19;40.00;97802.88;5066303;28;20053;-86
2023/04/29 08:55:42;;;;;;;1999.90;999.90;;;;;;;22.81;41.08;97792.88;5048571;28;20036;-88
2023/04/29 08:58:08;;;;;;;1999.90;999.90;;;;;;;23.34;40.07;97794.28;5066728;28;20029;-85
2023/04/29 09:00:34;;;;;;;1999.90;999.90;;;;;;;23.37;39.53;97795.50;5066447;28;20539;-87
2023/04/29 09:03:04;;;;;;;1999.90;999.90;;;;;;;21.58;42.62;97789.75;5047021;28;20082;-86
2023/04/29 09:05:30;;;;;;;1999.90;999.90;;;;;;;20.40;46.20;97795.31;5047281;28;20078;-87
2023/04/29 09:07:58;;;;;;;1999.90;999.90;;;;;;;20.45;46.27;97789.50;5065821;28;20553;-85
2023/04/29 09:10:25;;;;;;;1999.90;999.90;;;;;;;20.20;47.00;97789.69;5065147;28;20060;-86
2023/04/29 09:12:50;;;;;;;1999.90;999.90;;;;;;;20.81;45.70;97778.75;5065734;28;20056;-86
2023/04/29 09:15:16;;;;;;;1999.90;999.90;;;;;;;23.05;42.49;97783.19;5047854;28;20021;-87
2023/04/29 09:17:43;;;;;;;1999.90;999.90;;;;;;;25.48;37.41;97782.09;5067199;28;20036;-88
2023/04/29 09:20:21;;;;;;;1999.90;999.90;;;;;;;28.15;32.17;97792.13;5064166;28;20024;-85
2023/04/29 09:22:51;;;;;;;1999.90;999.90;;;;;;;28.99;29.76;97798.09;5045676;28;20047;-87
2023/04/29 09:25:16;;;;;;;1999.90;999.90;;;;;;;29.80;28.65;97794.19;5065379;28;20025;-85
2023/04/29 09:27:42;;;;;;;1999.90;999.90;;;;;;;29.37;28.56;97794.03;5066340;28;20028;-85
2023/04/29 09:30:08;;;;;;;1999.90;999.90;;;;;;;29.66;28.08;97783.94;5069085;28;20029;-86
2023/04/29 09:32:33;;;;;;;1999.90;999.90;;;;;;;30.61;26.95;97783.56;5063165;28;20021;-86
2023/04/29 09:35:26;;;;;;;1999.90;999.90;;;;;;;30.44;26.71;97796.00;5059998;28;20025;-87
2023/04/29 09:37:53;;;;;;;1999.90;999.90;;;;;;;30.98;25.74;97790.97;5061371;28;20049;-85
2023/04/29 09:40:31;;;;;;;1999.90;999.90;;;;;;;30.41;26.21;97775.06;5041713;28;20029;-87
2023/04/29 09:43:00;;;;;;;1999.90;999.90;;;;;;;29.01;28.32;97775.94;5043161;28;20021;-84
2023/04/29 09:45:35;;;;;;;1999.90;999.90;;;;;;;30.39;26.88;97773.84;5064593;28;20021;-85
2023/04/29 09:48:02;;;;;;;1999.90;999.90;;;;;;;30.65;26.15;97768.16;5047249;28;20063;-85
2023/04/29 09:50:28;;;;;;;1999.90;999.90;;;;;;;30.39;26.68;97771.88;5045022;28;20028;-82
2023/04/29 09:52:53;;;;;;;1999.90;999.90;;;;;;;30.70;26.92;97773.28;5059732;28;20025;-84
2023/04/29 09:55:19;;;;;;;1999.90;999.90;;;;;;;31.73;25.08;97771.91;5039166;28;20024;-86
2023/04/29 09:57:44;;;;;;;1999.90;999.90;;;;;;;31.27;25.23;97772.16;5042429;28;20021;-86
2023/04/29 10:00:12;;;;;;;1999.90;999.90;;;;;;;30.17;26.15;97764.97;5063465;28;20021;-86
2023/04/29 10:02:41;;;;;;;1999.90;999.90;;;;;;;28.53;28.36;97754.34;5049622;28;20269;-84
2023/04/29 10:05:08;;;;;;;1999.90;999.90;;;;;;;28.05;28.85;97750.81;5071193;28;20051;-86
2023/04/29 10:07:34;;;;;;;1999.90;999.90;;;;;;;29.48;28.13;97752.34;5059639;28;20052;-84
2023/04/29 10:10:04;;;;;;;1999.90;999.90;;;;;;;30.30;26.54;97740.53;5059642;28;20043;-85
2023/04/29 10:12:31;;;;;;;1999.90;999.90;;;;;;;30.39;25.80;97754.94;5062513;28;20051;-86
2023/04/29 10:15:09;;;;;;;1999.90;999.90;;;;;;;26.90;30.76;97732.31;5061139;28;20032;-85
2023/04/29 10:17:57;;;;;;;1999.90;999.90;;;;;;;27.08;30.74;97726.56;5066693;28;20039;-85
2023/04/29 10:20:24;;;;;;;1999.90;999.90;;;;;;;25.78;31.73;97722.88;5067437;28;20029;-82
2023/04/29 10:22:51;;;;;;;1999.90;999.90;;;;;;;26.83;31.02;97721.09;5065975;28;20013;-85
2023/04/29 10:25:19;;;;;;;1999.90;999.90;;;;;;;27.54;29.88;97718.66;5065519;28;20049;-86
2023/04/29 10:27:45;;;;;;;1999.90;999.90;;;;;;;27.92;29.49;97715.94;5046328;28;20092;-85
2023/04/29 10:30:16;;;;;;;1999.90;999.90;;;;;;;26.38;31.85;97719.22;5064760;28;20062;-86
2023/04/29 10:32:47;;;;;;;1999.90;999.90;;;;;;;26.89;31.29;97702.59;5064969;28;20040;-89
2023/04/29 10:35:14;;;;;;;1999.90;999.90;;;;;;;26.20;32.19;97694.03;5067990;28;20021;-84
2023/04/29 10:37:45;;;;;;;1999.90;999.90;;;;;;;26.24;32.22;97697.63;5058207;28;20037;-86
2023/04/29 10:40:21;;;;;;;1999.90;999.90;;;;;;;25.88;32.80;97690.44;5053585;28;20064;-87
2023/04/29 10:42:51;;;;;;;1999.90;999.90;;;;;;;24.20;35.67;97690.47;5066696;28;20047;-86
2023/04/29 10:45:42;;;;;;;1999.90;999.90;;;;;;;23.35;37.16;97680.63;5066910;28;20103;-85
2023/04/29 10:48:12;;;;;;;1999.90;999.90;;;;;;;22.01;39.79;97663.16;5041389;28;20045;-87
2023/04/29 10:50:47;;;;;;;1999.90;999.90;;;;;;;21.30;41.49;97659.25;5054012;28;20021;-86
2023/04/29 10:53:18;;;;;;;1999.90;999.90;;;;;;;21.65;42.10;97658.22;5071464;28;20029;-86